Mexico V — XCKR — position and weather

sailwx.info

Track history (hours):
 
Tides and Currents Weather Stations Pressure Air Temp Water Temp Dewpoint Dewpoint Depression Visibility Wind Speed Wind Dir Waves Ship Positions

Mexico V

Last reported at 2017-Mar-27 01:33 UTC. Time now 2017-Mar-27 02:50 UTC.
Position N 20°32' W 086°57'.

Length 40 m; draft 1.5 m.

Type: Ship. MMSI: 345110005.

Date/timePositionNaut miles runAvg speedWind from/ knotsBaromVisibWave heightAir tempDewpointWater temp
2017-Mar-27 01:33N 20°32' W 086°57'1 0.0
2017-Mar-25 01:11N 20°30' W 086°57'0 0.6
2017-Mar-25 00:34N 20°31' W 086°57'3 3.4
2017-Mar-24 23:33N 20°32' W 087°01'2 1.3
2017-Mar-24 22:20N 20°33' W 086°60'0 0.4
2017-Mar-24 21:33N 20°33' W 086°60'0 0.4
2017-Mar-24 20:22N 20°33' W 086°60'0 0.2
2017-Mar-24 19:33N 20°33' W 086°60'0 0.2
2017-Mar-24 18:23N 20°33' W 086°60'0 0.3
2017-Mar-24 17:33N 20°33' W 086°60'0 0.0
2017-Mar-24 16:25N 20°33' W 086°60'0 0.1
2017-Mar-24 14:22N 20°33' W 086°60'5 2.6
2017-Mar-24 12:33N 20°29' W 086°59'0 0.0
2017-Mar-24 11:34N 20°29' W 086°59'2 0.3
2017-Mar-24 02:34N 20°31' W 086°57'2 2.3
2017-Mar-24 01:34N 20°33' W 086°58'1 0.6
2017-Mar-24 00:17N 20°33' W 086°59'0 0.4
2017-Mar-23 23:34N 20°32' W 086°59'0 0.3
2017-Mar-23 22:20N 20°33' W 086°59'3 3.2
2017-Mar-23 21:34N 20°31' W 086°57'3 2.7
2017-Mar-23 20:33N 20°33' W 086°59'0 0.1
2017-Mar-23 19:15N 20°33' W 086°59'0 0.2
2017-Mar-23 18:33N 20°33' W 086°59'1 0.8
2017-Mar-23 17:24N 20°34' W 086°60'2 0.7
2017-Mar-23 15:15N 20°32' W 086°59'0 0.4
2017-Mar-23 14:34N 20°33' W 086°59'0 0.2
2017-Mar-23 13:17N 20°32' W 086°59'3 3.6
2017-Mar-23 12:34N 20°31' W 086°57'0 0.0
2017-Mar-23 11:34N 20°31' W 086°57'0 0.0
2017-Mar-23 02:22N 20°31' W 086°57'0 0.1
2017-Mar-23 01:34N 20°31' W 086°57'2 1.2
2017-Mar-22 23:33N 20°29' W 086°58'2 1.2
2017-Mar-22 21:34N 20°31' W 086°57'2 1.9
2017-Mar-22 20:34N 20°30' W 086°59'2 0.9
2017-Mar-22 18:33N 20°31' W 086°57'0 0.0
2017-Mar-22 17:33N 20°31' W 086°57'2 1.2
2017-Mar-22 15:33N 20°29' W 086°59'2 1.0
2017-Mar-22 13:33N 20°30' W 086°57'0 0.2
2017-Mar-22 12:34N 20°31' W 086°57'0 0.0
2017-Mar-22 02:11N 20°30' W 086°57'2 3.9
2017-Mar-22 01:33N 20°33' W 086°58'1 1.2
2017-Mar-22 00:20N 20°33' W 086°60'4 4.6
2017-Mar-21 23:33N 20°31' W 086°57'3 3.4
2017-Mar-21 22:34N 20°33' W 086°60'0 0.2
2017-Mar-21 21:22N 20°33' W 086°60'0 0.3
2017-Mar-21 20:34N 20°33' W 086°59'1 0.8
2017-Mar-21 19:22N 20°34' W 087°00'1 1.0
2017-Mar-21 18:34N 20°34' W 086°59'1 1.1
2017-Mar-21 17:27N 20°33' W 087°00'1 1.0
2017-Mar-21 16:34N 20°33' W 086°59'1 0.5
2017-Mar-21 15:17N 20°32' W 086°59'0 0.5
2017-Mar-21 14:33N 20°33' W 086°59'0 0.2
2017-Mar-21 13:19N 20°33' W 086°59'3 4.1
2017-Mar-21 12:33N 20°31' W 086°57'0 0.0
2017-Mar-21 11:33N 20°31' W 086°57'0 0.0
2017-Mar-21 02:14N 20°31' W 086°57'4 5.2
2017-Mar-21 01:34N 20°33' W 086°60'0 0.1
2017-Mar-21 00:24N 20°33' W 086°60'4 4.2
2017-Mar-20 23:33N 20°31' W 086°57'3 3.4
2017-Mar-20 22:34N 20°33' W 086°60'0 0.3
2017-Mar-20 21:21N 20°33' W 086°59'1 0.8
2017-Mar-20 20:33N 20°33' W 087°00'1 0.4
2017-Mar-20 19:22N 20°33' W 086°60'2 1.8
2017-Mar-20 18:32N 20°34' W 087°01'2 1.6
2017-Mar-20 17:20N 20°33' W 086°59'3 3.5
2017-Mar-20 16:34N 20°31' W 086°57'0 0.4
2017-Mar-20 15:34N 20°31' W 086°57'3 2.6
2017-Mar-20 14:34N 20°33' W 086°59'0 0.2
2017-Mar-20 13:19N 20°33' W 086°59'3 3.8
2017-Mar-20 12:33N 20°31' W 086°57'0 0.0
2017-Mar-20 02:33N 20°30' W 086°57'3 2.7
2017-Mar-20 01:33N 20°33' W 086°58'1 0.9
2017-Mar-20 00:22N 20°32' W 086°59'0 0.5
2017-Mar-19 23:34N 20°33' W 086°59'1 1.3
2017-Mar-19 22:24N 20°34' W 086°60'4 4.6
2017-Mar-19 21:33N 20°31' W 086°57'3 3.0
2017-Mar-19 20:34N 20°32' W 086°60'1 0.4
2017-Mar-19 19:21N 20°33' W 086°59'3 3.5
2017-Mar-19 18:34N 20°31' W 086°57'0 0.0
2017-Mar-19 17:33N 20°31' W 086°57'3 3.4
2017-Mar-19 16:33N 20°33' W 086°60'0 0.2
2017-Mar-19 15:19N 20°33' W 086°60'0 0.4
2017-Mar-19 14:33N 20°33' W 086°59'0 0.2
2017-Mar-19 13:21N 20°33' W 086°60'3 4.2
2017-Mar-19 12:33N 20°31' W 086°57'0 0.0
2017-Mar-19 02:23N 20°30' W 086°57'4 4.4
2017-Mar-19 01:33N 20°33' W 087°00'1 0.8
2017-Mar-19 00:21N 20°33' W 086°59'3 3.3
2017-Mar-18 23:34N 20°31' W 086°57'2 1.9
2017-Mar-18 22:34N 20°32' W 086°59'2 1.6
2017-Mar-18 21:25N 20°33' W 087°00'1 1.1
2017-Mar-18 20:33N 20°33' W 086°59'1 0.6
2017-Mar-18 19:23N 20°33' W 086°60'4 4.3
2017-Mar-18 18:33N 20°31' W 086°57'0 0.0
2017-Mar-18 17:34N 20°31' W 086°57'3 1.4
2017-Mar-18 15:20N 20°33' W 086°59'0 0.5
2017-Mar-18 14:33N 20°33' W 086°60'0 0.2
2017-Mar-18 13:22N 20°33' W 086°60'3 4.3
2017-Mar-18 12:34N 20°31' W 086°57'0 0.0
2017-Mar-18 02:07N 20°31' W 086°57'2 3.9
2017-Mar-18 01:34N 20°32' W 086°58'1 1.1
2017-Mar-18 00:21N 20°33' W 086°60'3 3.5
2017-Mar-17 23:22N 20°31' W 086°57'0 0.4
2017-Mar-17 22:34N 20°31' W 086°57'3 2.6
2017-Mar-17 21:16N 20°33' W 086°60'1 1.5
2017-Mar-17 20:34N 20°32' W 086°59'1 0.4
2017-Mar-17 19:20N 20°33' W 086°59'0 0.5
2017-Mar-17 18:34N 20°33' W 086°60'0 0.3
2017-Mar-17 17:25N 20°33' W 086°60'3 3.8
2017-Mar-17 16:33N 20°31' W 086°57'3 1.3
2017-Mar-17 14:18N 20°33' W 086°59'3 3.7
2017-Mar-17 13:30N 20°31' W 086°57'0 0.4
2017-Mar-17 12:33N 20°31' W 086°57'0 0.0
2017-Mar-17 11:34N 20°31' W 086°57'0 0.3
2017-Mar-17 10:34N 20°31' W 086°57'0 0.0
2017-Mar-17 03:12N 20°31' W 086°57'2 2.3
2017-Mar-17 02:34N 20°32' W 086°58'  
Track history (hours):
 
Tides and Currents Weather Stations Pressure Air Temp Water Temp Dewpoint Dewpoint Depression Visibility Wind Speed Wind Dir Waves Ship Positions

Mexico V

Last reported at 2017-Mar-27 01:33 UTC. Time now 2017-Mar-27 02:50 UTC.
Position N 20°32' W 086°57'.

Length 40 m; draft 1.5 m.

Type: Ship. MMSI: 345110005.

Date/timePositionNaut miles runAvg speedWind from/ knotsBaromVisibWave heightAir tempDewpointWater temp
2017-Mar-27 01:33N 20°32' W 086°57'1 0.0
2017-Mar-25 01:11N 20°30' W 086°57'0 0.6
2017-Mar-25 00:34N 20°31' W 086°57'3 3.4
2017-Mar-24 23:33N 20°32' W 087°01'2 1.3
2017-Mar-24 22:20N 20°33' W 086°60'0 0.4
2017-Mar-24 21:33N 20°33' W 086°60'0 0.4
2017-Mar-24 20:22N 20°33' W 086°60'0 0.2
2017-Mar-24 19:33N 20°33' W 086°60'0 0.2
2017-Mar-24 18:23N 20°33' W 086°60'0 0.3
2017-Mar-24 17:33N 20°33' W 086°60'0 0.0
2017-Mar-24 16:25N 20°33' W 086°60'0 0.1
2017-Mar-24 14:22N 20°33' W 086°60'5 2.6
2017-Mar-24 12:33N 20°29' W 086°59'0 0.0
2017-Mar-24 11:34N 20°29' W 086°59'2 0.3
2017-Mar-24 02:34N 20°31' W 086°57'2 2.3
2017-Mar-24 01:34N 20°33' W 086°58'1 0.6
2017-Mar-24 00:17N 20°33' W 086°59'0 0.4
2017-Mar-23 23:34N 20°32' W 086°59'0 0.3
2017-Mar-23 22:20N 20°33' W 086°59'3 3.2
2017-Mar-23 21:34N 20°31' W 086°57'3 2.7
2017-Mar-23 20:33N 20°33' W 086°59'0 0.1
2017-Mar-23 19:15N 20°33' W 086°59'0 0.2
2017-Mar-23 18:33N 20°33' W 086°59'1 0.8
2017-Mar-23 17:24N 20°34' W 086°60'2 0.7
2017-Mar-23 15:15N 20°32' W 086°59'0 0.4
2017-Mar-23 14:34N 20°33' W 086°59'0 0.2
2017-Mar-23 13:17N 20°32' W 086°59'3 3.6
2017-Mar-23 12:34N 20°31' W 086°57'0 0.0
2017-Mar-23 11:34N 20°31' W 086°57'0 0.0
2017-Mar-23 02:22N 20°31' W 086°57'0 0.1
2017-Mar-23 01:34N 20°31' W 086°57'2 1.2
2017-Mar-22 23:33N 20°29' W 086°58'2 1.2
2017-Mar-22 21:34N 20°31' W 086°57'2 1.9
2017-Mar-22 20:34N 20°30' W 086°59'2 0.9
2017-Mar-22 18:33N 20°31' W 086°57'0 0.0
2017-Mar-22 17:33N 20°31' W 086°57'2 1.2
2017-Mar-22 15:33N 20°29' W 086°59'2 1.0
2017-Mar-22 13:33N 20°30' W 086°57'0 0.2
2017-Mar-22 12:34N 20°31' W 086°57'0 0.0
2017-Mar-22 02:11N 20°30' W 086°57'2 3.9
2017-Mar-22 01:33N 20°33' W 086°58'1 1.2
2017-Mar-22 00:20N 20°33' W 086°60'4 4.6
2017-Mar-21 23:33N 20°31' W 086°57'3 3.4
2017-Mar-21 22:34N 20°33' W 086°60'0 0.2
2017-Mar-21 21:22N 20°33' W 086°60'0 0.3
2017-Mar-21 20:34N 20°33' W 086°59'1 0.8
2017-Mar-21 19:22N 20°34' W 087°00'1 1.0
2017-Mar-21 18:34N 20°34' W 086°59'1 1.1
2017-Mar-21 17:27N 20°33' W 087°00'1 1.0
2017-Mar-21 16:34N 20°33' W 086°59'1 0.5
2017-Mar-21 15:17N 20°32' W 086°59'0 0.5
2017-Mar-21 14:33N 20°33' W 086°59'0 0.2
2017-Mar-21 13:19N 20°33' W 086°59'3 4.1
2017-Mar-21 12:33N 20°31' W 086°57'0 0.0
2017-Mar-21 11:33N 20°31' W 086°57'0 0.0
2017-Mar-21 02:14N 20°31' W 086°57'4 5.2
2017-Mar-21 01:34N 20°33' W 086°60'0 0.1
2017-Mar-21 00:24N 20°33' W 086°60'4 4.2
2017-Mar-20 23:33N 20°31' W 086°57'3 3.4
2017-Mar-20 22:34N 20°33' W 086°60'0 0.3
2017-Mar-20 21:21N 20°33' W 086°59'1 0.8
2017-Mar-20 20:33N 20°33' W 087°00'1 0.4
2017-Mar-20 19:22N 20°33' W 086°60'2 1.8
2017-Mar-20 18:32N 20°34' W 087°01'2 1.6
2017-Mar-20 17:20N 20°33' W 086°59'3 3.5
2017-Mar-20 16:34N 20°31' W 086°57'0 0.4
2017-Mar-20 15:34N 20°31' W 086°57'3 2.6
2017-Mar-20 14:34N 20°33' W 086°59'0 0.2
2017-Mar-20 13:19N 20°33' W 086°59'3 3.8
2017-Mar-20 12:33N 20°31' W 086°57'0 0.0
2017-Mar-20 02:33N 20°30' W 086°57'3 2.7
2017-Mar-20 01:33N 20°33' W 086°58'1 0.9
2017-Mar-20 00:22N 20°32' W 086°59'0 0.5
2017-Mar-19 23:34N 20°33' W 086°59'1 1.3
2017-Mar-19 22:24N 20°34' W 086°60'4 4.6
2017-Mar-19 21:33N 20°31' W 086°57'3 3.0
2017-Mar-19 20:34N 20°32' W 086°60'1 0.4
2017-Mar-19 19:21N 20°33' W 086°59'3 3.5
2017-Mar-19 18:34N 20°31' W 086°57'0 0.0
2017-Mar-19 17:33N 20°31' W 086°57'3 3.4
2017-Mar-19 16:33N 20°33' W 086°60'0 0.2
2017-Mar-19 15:19N 20°33' W 086°60'0 0.4
2017-Mar-19 14:33N 20°33' W 086°59'0 0.2
2017-Mar-19 13:21N 20°33' W 086°60'3 4.2
2017-Mar-19 12:33N 20°31' W 086°57'0 0.0
2017-Mar-19 02:23N 20°30' W 086°57'4 4.4
2017-Mar-19 01:33N 20°33' W 087°00'1 0.8
2017-Mar-19 00:21N 20°33' W 086°59'3 3.3
2017-Mar-18 23:34N 20°31' W 086°57'2 1.9
2017-Mar-18 22:34N 20°32' W 086°59'2 1.6
2017-Mar-18 21:25N 20°33' W 087°00'1 1.1
2017-Mar-18 20:33N 20°33' W 086°59'1 0.6
2017-Mar-18 19:23N 20°33' W 086°60'4 4.3
2017-Mar-18 18:33N 20°31' W 086°57'0 0.0
2017-Mar-18 17:34N 20°31' W 086°57'3 1.4
2017-Mar-18 15:20N 20°33' W 086°59'0 0.5
2017-Mar-18 14:33N 20°33' W 086°60'0 0.2
2017-Mar-18 13:22N 20°33' W 086°60'3 4.3
2017-Mar-18 12:34N 20°31' W 086°57'0 0.0
2017-Mar-18 02:07N 20°31' W 086°57'2 3.9
2017-Mar-18 01:34N 20°32' W 086°58'1 1.1
2017-Mar-18 00:21N 20°33' W 086°60'3 3.5
2017-Mar-17 23:22N 20°31' W 086°57'0 0.4
2017-Mar-17 22:34N 20°31' W 086°57'3 2.6
2017-Mar-17 21:16N 20°33' W 086°60'1 1.5
2017-Mar-17 20:34N 20°32' W 086°59'1 0.4
2017-Mar-17 19:20N 20°33' W 086°59'0 0.5
2017-Mar-17 18:34N 20°33' W 086°60'0 0.3
2017-Mar-17 17:25N 20°33' W 086°60'3 3.8
2017-Mar-17 16:33N 20°31' W 086°57'3 1.3
2017-Mar-17 14:18N 20°33' W 086°59'3 3.7
2017-Mar-17 13:30N 20°31' W 086°57'0 0.4
2017-Mar-17 12:33N 20°31' W 086°57'0 0.0
2017-Mar-17 11:34N 20°31' W 086°57'0 0.3
2017-Mar-17 10:34N 20°31' W 086°57'0 0.0
2017-Mar-17 03:12N 20°31' W 086°57'2 2.3
2017-Mar-17 02:34N 20°32' W 086°58'  

Dump ship's entire track history